Time;durP1;ratioP1;P1;durP2;ratioP2;P2;SDS_P1;SDS_P2;PMS_P1;PMS_P2;Temp;Humidity;BMP_temperature;BMP_pressure;BME280_temperature;BME280_humidity;BME280_pressure;Samples;Min_cycle;Max_cycle;Signal;HPM_P1;HPM_P2
2023/05/03 00:02:32;;;;;;;4.10;3.60;;;;;;;;;;6337553;27;20059;-76
2023/05/03 00:05:36;;;;;;;4.60;3.70;;;;;;;;;;6353007;27;20344;-77
2023/05/03 00:08:38;;;;;;;;;;;;;;;;;;6340960;27;20065;-76
2023/05/03 00:11:39;;;;;;;5.15;4.25;;;;;;;;;;6342004;27;19915;-77
2023/05/03 00:14:43;;;;;;;6.07;4.20;;;;;;;;;;6342504;28;20055;-77
2023/05/03 00:17:44;;;;;;;5.33;4.03;;;;;;;;;;6341764;28;20375;-77
2023/05/03 00:20:46;;;;;;;5.20;4.40;;;;;;;;;;6343279;28;20844;-77
2023/05/03 00:23:55;;;;;;;5.78;4.43;;;;;;;;;;6342669;28;20059;-76
2023/05/03 00:26:57;;;;;;;5.45;4.35;;;;;;;;;;6341949;27;20043;-77
2023/05/03 00:30:00;;;;;;;5.05;4.25;;;;;;;;;;6342973;28;20240;-76
2023/05/03 00:33:02;;;;;;;5.15;4.65;;;;;;;;;;6343598;27;20067;-77
2023/05/03 00:36:08;;;;;;;6.15;4.60;;;;;;;;;;6339994;28;20051;-77
2023/05/03 00:39:10;;;;;;;6.15;4.20;;;;;;;;;;6340182;28;20044;-78
2023/05/03 00:42:18;;;;;;;6.60;4.57;;;;;;;;;;6340600;27;20067;-77
2023/05/03 00:45:21;;;;;;;4.97;4.20;;;;;;;;;;6341906;28;20040;-77
2023/05/03 00:48:23;;;;;;;5.65;4.07;;;;;;;;;;6340216;28;20247;-77
2023/05/03 00:51:27;;;;;;;8.75;4.93;;;;;;;;;;6341277;28;20332;-77
2023/05/03 00:54:34;;;;;;;;;;;;;;;;;;6342201;27;20051;-76
2023/05/03 00:57:36;;;;;;;5.60;4.82;;;;;;;;;;6342372;27;20062;-77
2023/05/03 01:00:39;;;;;;;6.18;5.15;;;;;;;;;;6338873;28;20232;-77
2023/05/03 01:03:45;;;;;;;7.30;4.70;;;;;;;;;;6340402;28;20156;-77
2023/05/03 01:06:54;;;;;;;6.22;4.55;;;;;;;;;;6341024;27;20039;-77
2023/05/03 01:10:39;;;;;;;5.63;4.55;;;;;;;;;;6343306;27;20048;-77
2023/05/03 01:13:47;;;;;;;6.03;4.60;;;;;;;;;;6335032;27;20059;-77
2023/05/03 01:16:56;;;;;;;4.70;3.72;;;;;;;;;;6341487;28;20071;-77
2023/05/03 01:20:03;;;;;;;5.70;4.40;;;;;;;;;;6339219;28;20073;-77
2023/05/03 01:23:17;;;;;;;5.30;4.43;;;;;;;;;;6340060;28;20362;-77
2023/05/03 01:26:21;;;;;;;5.53;4.53;;;;;;;;;;6338280;28;20271;-77
2023/05/03 01:29:23;;;;;;;7.95;4.60;;;;;;;;;;6340616;27;20064;-77
2023/05/03 01:32:30;;;;;;;5.55;4.75;;;;;;;;;;6340527;27;20045;-77
2023/05/03 01:35:53;;;;;;;6.47;4.45;;;;;;;;;;6342384;28;20047;-77
2023/05/03 01:38:55;;;;;;;6.53;4.15;;;;;;;;;;6340688;28;20103;-77
2023/05/03 01:41:59;;;;;;;5.65;4.50;;;;;;;;;;6338661;28;20063;-77
2023/05/03 01:45:02;;;;;;;;;;;;;;;;;;6339758;28;20334;-76
2023/05/03 01:48:15;;;;;;;6.28;3.78;;;;;;;;;;6340541;28;19930;-77
2023/05/03 01:51:17;;;;;;;5.50;4.25;;;;;;;;;;6340269;28;20265;-78
2023/05/03 01:54:19;;;;;;;4.75;4.15;;;;;;;;;;6340893;28;20119;-77
2023/05/03 01:57:22;;;;;;;5.15;3.67;;;;;;;;;;6341264;28;20511;-77
2023/05/03 02:00:24;;;;;;;5.23;3.70;;;;;;;;;;6340414;28;20337;-77
2023/05/03 02:03:26;;;;;;;5.40;4.20;;;;;;;;;;6337684;28;20070;-77
2023/05/03 02:06:28;;;;;;;4.90;3.65;;;;;;;;;;6337571;28;20057;-78
2023/05/03 02:09:29;;;;;;;4.65;3.67;;;;;;;;;;6338635;28;20051;-77
2023/05/03 02:12:32;;;;;;;4.60;3.47;;;;;;;;;;6340219;28;20293;-77
2023/05/03 02:15:34;;;;;;;4.07;3.20;;;;;;;;;;6341290;28;20102;-77
2023/05/03 02:18:36;;;;;;;4.68;3.40;;;;;;;;;;6345211;28;20051;-77
2023/05/03 02:21:38;;;;;;;4.93;3.70;;;;;;;;;;6340612;28;20055;-77
2023/05/03 02:24:40;;;;;;;4.47;3.35;;;;;;;;;;6330121;28;20051;-77
2023/05/03 02:27:43;;;;;;;3.97;3.28;;;;;;;;;;6335964;28;20311;-77
2023/05/03 02:30:44;;;;;;;4.20;3.80;;;;;;;;;;6343950;28;20050;-77
2023/05/03 02:33:46;;;;;;;4.45;3.40;;;;;;;;;;6339952;28;20056;-76
2023/05/03 02:36:48;;;;;;;6.05;3.30;;;;;;;;;;6340683;28;20051;-76
2023/05/03 02:39:49;;;;;;;4.75;3.30;;;;;;;;;;6344324;28;20217;-77
2023/05/03 02:42:52;;;;;;;3.90;3.10;;;;;;;;;;6347597;28;20114;-77
2023/05/03 02:45:54;;;;;;;4.17;3.40;;;;;;;;;;6346736;28;20110;-77
2023/05/03 02:48:56;;;;;;;4.25;3.17;;;;;;;;;;6346014;28;20051;-76
2023/05/03 02:51:58;;;;;;;4.95;3.85;;;;;;;;;;6345573;28;20105;-76
2023/05/03 02:55:02;;;;;;;4.07;3.45;;;;;;;;;;6345320;27;20051;-77
2023/05/03 02:58:08;;;;;;;6.03;3.72;;;;;;;;;;6343882;28;20133;-77
2023/05/03 03:01:26;;;;;;;4.03;3.20;;;;;;;;;;6343041;28;20043;-77
2023/05/03 03:04:28;;;;;;;3.63;3.10;;;;;;;;;;6340277;28;20052;-77
2023/05/03 03:07:29;;;;;;;4.35;3.38;;;;;;;;;;6341875;28;20332;-76
2023/05/03 03:10:31;;;;;;;4.55;3.22;;;;;;;;;;6342055;28;20051;-76
2023/05/03 03:13:38;;;;;;;4.68;3.70;;;;;;;;;;6343132;28;20059;-77
2023/05/03 03:16:39;;;;;;;4.35;3.22;;;;;;;;;;6341091;28;20359;-77
2023/05/03 03:19:41;;;;;;;6.45;3.70;;;;;;;;;;6343272;28;20059;-78
2023/05/03 03:22:44;;;;;;;4.15;3.13;;;;;;;;;;6342969;27;20052;-75
2023/05/03 03:25:45;;;;;;;4.05;3.13;;;;;;;;;;6344280;27;20036;-75
2023/05/03 03:28:48;;;;;;;4.22;3.10;;;;;;;;;;6344251;28;20051;-76
2023/05/03 03:31:50;;;;;;;3.42;2.80;;;;;;;;;;6343041;28;20066;-76
2023/05/03 03:34:52;;;;;;;4.45;3.22;;;;;;;;;;6345048;28;20110;-77
2023/05/03 03:37:54;;;;;;;3.95;3.22;;;;;;;;;;6342741;28;20348;-77
2023/05/03 03:40:56;;;;;;;4.13;3.13;;;;;;;;;;6340443;28;20043;-76
2023/05/03 03:43:59;;;;;;;3.78;2.95;;;;;;;;;;6344198;27;20100;-76
2023/05/03 03:47:00;;;;;;;6.82;3.28;;;;;;;;;;6343287;28;20048;-76
2023/05/03 03:50:02;;;;;;;5.47;3.35;;;;;;;;;;6338281;28;20109;-77
2023/05/03 03:53:05;;;;;;;3.72;2.95;;;;;;;;;;6344444;28;20051;-76
2023/05/03 03:56:07;;;;;;;3.17;2.88;;;;;;;;;;6342904;28;21926;-77
2023/05/03 03:59:10;;;;;;;5.25;3.63;;;;;;;;;;6343238;28;20055;-77
2023/05/03 04:02:12;;;;;;;5.37;3.40;;;;;;;;;;6343372;27;20055;-76
2023/05/03 04:05:15;;;;;;;5.72;3.40;;;;;;;;;;6341367;27;20127;-76
2023/05/03 04:08:17;;;;;;;3.97;3.00;;;;;;;;;;6339858;28;20243;-76
2023/05/03 04:11:20;;;;;;;4.65;3.35;;;;;;;;;;6344322;28;20236;-76
2023/05/03 04:14:23;;;;;;;6.43;3.60;;;;;;;;;;6342499;28;20047;-76
2023/05/03 04:17:25;;;;;;;4.03;2.33;;;;;;;;;;6343215;27;20093;-76
2023/05/03 04:20:26;;;;;;;3.47;2.75;;;;;;;;;;6343713;28;20062;-77
2023/05/03 04:23:28;;;;;;;3.70;2.42;;;;;;;;;;6340773;27;20051;-76
2023/05/03 04:26:30;;;;;;;3.35;2.50;;;;;;;;;;6339466;28;20361;-76
2023/05/03 04:29:33;;;;;;;3.88;2.42;;;;;;;;;;6342007;28;20047;-77
2023/05/03 04:32:36;;;;;;;3.03;2.23;;;;;;;;;;6341391;28;20182;-76
2023/05/03 04:35:37;;;;;;;4.22;3.08;;;;;;;;;;6342781;28;20048;-76
2023/05/03 04:38:40;;;;;;;4.35;2.17;;;;;;;;;;6340276;28;20054;-77
2023/05/03 04:41:42;;;;;;;3.67;2.75;;;;;;;;;;6341966;28;20052;-77
2023/05/03 04:44:45;;;;;;;3.33;2.60;;;;;;;;;;6342179;28;20059;-76
2023/05/03 04:47:47;;;;;;;4.10;2.63;;;;;;;;;;6339246;28;20047;-76
2023/05/03 04:50:50;;;;;;;4.70;2.88;;;;;;;;;;6342920;28;20058;-76
2023/05/03 04:53:52;;;;;;;3.90;2.70;;;;;;;;;;6342876;28;20099;-77
2023/05/03 04:56:55;;;;;;;3.40;2.65;;;;;;;;;;6339359;27;21665;-77
2023/05/03 04:59:58;;;;;;;3.90;2.72;;;;;;;;;;6339411;27;20043;-74
2023/05/03 05:03:00;;;;;;;4.07;3.10;;;;;;;;;;6342103;27;20066;-75
2023/05/03 05:06:02;;;;;;;4.60;3.20;;;;;;;;;;6342114;27;20051;-78
2023/05/03 05:09:07;;;;;;;3.97;2.88;;;;;;;;;;6342759;28;20213;-78
2023/05/03 05:12:10;;;;;;;3.95;3.00;;;;;;;;;;6343134;27;20065;-78
2023/05/03 05:15:13;;;;;;;4.13;3.40;;;;;;;;;;6341532;28;20040;-77
2023/05/03 05:18:15;;;;;;;5.07;3.63;;;;;;;;;;6339969;28;20358;-79
2023/05/03 05:21:17;;;;;;;5.25;3.50;;;;;;;;;;6341715;27;20401;-78
2023/05/03 05:24:18;;;;;;;4.90;3.30;;;;;;;;;;6340705;27;20104;-78
2023/05/03 05:27:20;;;;;;;4.78;3.20;;;;;;;;;;6339840;27;20059;-77
2023/05/03 05:30:23;;;;;;;4.32;3.13;;;;;;;;;;6338120;27;20421;-78
2023/05/03 05:33:25;;;;;;;6.03;3.70;;;;;;;;;;6343390;28;20047;-77
2023/05/03 05:36:27;;;;;;;4.32;3.33;;;;;;;;;;6339548;28;20339;-77
2023/05/03 05:39:28;;;;;;;4.30;3.47;;;;;;;;;;6340495;28;20047;-76
2023/05/03 05:42:30;;;;;;;4.28;3.15;;;;;;;;;;6338830;28;20136;-76
2023/05/03 05:45:33;;;;;;;3.65;3.00;;;;;;;;;;6340759;28;20048;-77
2023/05/03 05:48:35;;;;;;;4.90;3.37;;;;;;;;;;6340555;27;20110;-76
2023/05/03 05:51:36;;;;;;;4.90;3.08;;;;;;;;;;6340544;28;20052;-76
2023/05/03 05:54:38;;;;;;;3.67;2.67;;;;;;;;;;6339747;28;20096;-76
2023/05/03 05:57:40;;;;;;;3.55;2.60;;;;;;;;;;6337928;27;20100;-76
2023/05/03 06:00:43;;;;;;;3.42;2.90;;;;;;;;;;6342122;28;20055;-76
2023/05/03 06:03:45;;;;;;;6.88;3.03;;;;;;;;;;6337820;28;20193;-77
2023/05/03 06:06:47;;;;;;;4.70;3.22;;;;;;;;;;6340527;28;20116;-77
2023/05/03 06:09:49;;;;;;;3.92;3.10;;;;;;;;;;6340195;28;20055;-76
2023/05/03 06:12:50;;;;;;;6.53;3.38;;;;;;;;;;6337768;27;20052;-77
2023/05/03 06:15:53;;;;;;;5.20;3.58;;;;;;;;;;6339822;28;20087;-77
2023/05/03 06:18:55;;;;;;;7.05;3.42;;;;;;;;;;6340848;28;20063;-77
2023/05/03 06:21:58;;;;;;;6.15;3.67;;;;;;;;;;6340125;28;20051;-77
2023/05/03 06:25:00;;;;;;;5.28;3.95;;;;;;;;;;6335228;28;20097;-77
2023/05/03 06:28:01;;;;;;;3.92;2.92;;;;;;;;;;6336667;28;20348;-77
2023/05/03 06:31:04;;;;;;;4.28;3.47;;;;;;;;;;6337301;28;20052;-77
2023/05/03 06:34:06;;;;;;;6.53;3.50;;;;;;;;;;6336906;28;20063;-77
2023/05/03 06:37:07;;;;;;;6.40;3.33;;;;;;;;;;6337618;28;20140;-77
2023/05/03 06:40:10;;;;;;;4.57;3.08;;;;;;;;;;6337518;28;20039;-76
2023/05/03 06:43:11;;;;;;;4.90;3.15;;;;;;;;;;6337113;28;20059;-76
2023/05/03 06:46:15;;;;;;;5.07;3.63;;;;;;;;;;6338957;28;20047;-76
2023/05/03 06:49:17;;;;;;;4.68;3.45;;;;;;;;;;6339620;28;20058;-76
2023/05/03 06:52:18;;;;;;;4.80;3.15;;;;;;;;;;6338238;28;20051;-76
2023/05/03 06:55:20;;;;;;;4.32;3.30;;;;;;;;;;6338400;28;20056;-76
2023/05/03 06:58:22;;;;;;;5.72;3.63;;;;;;;;;;6338342;28;20059;-76
2023/05/03 07:01:25;;;;;;;5.63;3.72;;;;;;;;;;6336001;28;20047;-76
2023/05/03 07:04:27;;;;;;;7.50;3.60;;;;;;;;;;6336544;28;20109;-77
2023/05/03 07:07:28;;;;;;;6.55;3.70;;;;;;;;;;6336316;28;20320;-76
2023/05/03 07:10:30;;;;;;;6.05;3.97;;;;;;;;;;6341148;28;20108;-76
2023/05/03 07:13:32;;;;;;;7.13;3.40;;;;;;;;;;6337667;28;20044;-77
2023/05/03 07:16:35;;;;;;;5.53;4.22;;;;;;;;;;6336939;28;20343;-76
2023/05/03 07:19:37;;;;;;;6.30;4.03;;;;;;;;;;6339172;28;20056;-76
2023/05/03 07:22:38;;;;;;;7.05;3.95;;;;;;;;;;6336590;28;20060;-76
2023/05/03 07:25:40;;;;;;;5.40;4.35;;;;;;;;;;6345890;28;20047;-77
2023/05/03 07:28:42;;;;;;;7.22;4.50;;;;;;;;;;6339905;28;20046;-77
2023/05/03 07:31:45;;;;;;;6.72;4.65;;;;;;;;;;6342185;28;20316;-77
2023/05/03 07:34:47;;;;;;;7.13;5.15;;;;;;;;;;6343253;28;20039;-76
2023/05/03 07:37:49;;;;;;;7.32;5.50;;;;;;;;;;6342553;28;20040;-76
2023/05/03 07:40:50;;;;;;;9.20;5.80;;;;;;;;;;6342431;28;20050;-76
2023/05/03 07:43:53;;;;;;;7.50;5.47;;;;;;;;;;6340214;28;20063;-77
2023/05/03 07:46:56;;;;;;;8.63;5.77;;;;;;;;;;6342150;28;20047;-77
2023/05/03 07:50:16;;;;;;;7.20;5.05;;;;;;;;;;6342068;28;20066;-77
2023/05/03 07:53:18;;;;;;;6.70;5.07;;;;;;;;;;6341308;28;20063;-76
2023/05/03 07:56:20;;;;;;;7.45;4.80;;;;;;;;;;6342319;28;20277;-77
2023/05/03 07:59:21;;;;;;;6.43;5.20;;;;;;;;;;6343162;28;20306;-77
2023/05/03 08:02:24;;;;;;;6.57;4.97;;;;;;;;;;6339901;28;20067;-77
2023/05/03 08:05:26;;;;;;;5.55;4.57;;;;;;;;;;6341649;28;20111;-78
2023/05/03 08:08:28;;;;;;;7.63;4.90;;;;;;;;;;6338412;28;20252;-77
2023/05/03 08:11:30;;;;;;;6.97;5.10;;;;;;;;;;6341573;28;20063;-77
2023/05/03 08:14:33;;;;;;;5.72;4.55;;;;;;;;;;6340231;28;20071;-77
2023/05/03 08:17:41;;;;;;;7.43;4.70;;;;;;;;;;6342252;28;20070;-77
2023/05/03 08:20:45;;;;;;;5.47;4.50;;;;;;;;;;6340232;28;20051;-77
2023/05/03 08:23:47;;;;;;;5.40;4.10;;;;;;;;;;6339198;28;20133;-77
2023/05/03 08:26:49;;;;;;;8.30;4.28;;;;;;;;;;6339975;28;20055;-77
2023/05/03 08:29:51;;;;;;;5.93;3.90;;;;;;;;;;6337260;28;20046;-76
2023/05/03 08:32:54;;;;;;;5.25;3.83;;;;;;;;;;6343462;28;20289;-77
2023/05/03 08:35:56;;;;;;;6.22;4.10;;;;;;;;;;6340755;28;20297;-77
2023/05/03 08:38:57;;;;;;;6.20;4.10;;;;;;;;;;6340619;28;20055;-76
2023/05/03 08:42:00;;;;;;;7.55;4.55;;;;;;;;;;6337635;28;20048;-77
2023/05/03 08:45:03;;;;;;;6.68;4.32;;;;;;;;;;6341508;28;20050;-76
2023/05/03 08:48:06;;;;;;;4.47;3.50;;;;;;;;;;6342712;28;20052;-78
2023/05/03 08:51:08;;;;;;;;;;;;;;;;;;6343207;28;20059;-77
2023/05/03 08:54:10;;;;;;;4.05;3.47;;;;;;;;;;6339444;28;19954;-77
2023/05/03 08:57:14;;;;;;;5.22;3.30;;;;;;;;;;6340390;28;20078;-77
2023/05/03 09:00:18;;;;;;;5.78;3.10;;;;;;;;;;6341292;28;20052;-77
2023/05/03 09:03:21;;;;;;;4.43;2.63;;;;;;;;;;6341875;28;20055;-77
2023/05/03 09:06:25;;;;;;;3.97;3.03;;;;;;;;;;6339421;28;20414;-77
2023/05/03 09:09:31;;;;;;;6.80;3.63;;;;;;;;;;6339842;28;20319;-77
2023/05/03 09:12:35;;;;;;;5.22;3.80;;;;;;;;;;6338967;28;20135;-77
2023/05/03 09:15:36;;;;;;;7.18;3.85;;;;;;;;;;6341055;28;20052;-77
2023/05/03 09:18:43;;;;;;;5.50;4.22;;;;;;;;;;6339458;28;20056;-77
2023/05/03 09:21:47;;;;;;;6.13;3.50;;;;;;;;;;6338887;28;20063;-77
2023/05/03 09:24:52;;;;;;;6.72;3.35;;;;;;;;;;6339512;28;20071;-77
2023/05/03 09:28:01;;;;;;;4.38;3.67;;;;;;;;;;6341886;28;20052;-77
2023/05/03 09:31:05;;;;;;;4.70;3.40;;;;;;;;;;6338205;28;20047;-77
2023/05/03 09:34:23;;;;;;;5.05;3.70;;;;;;;;;;6335769;28;20063;-77
2023/05/03 09:37:37;;;;;;;4.45;3.08;;;;;;;;;;6336812;28;20074;-77
2023/05/03 09:40:46;;;;;;;6.03;3.22;;;;;;;;;;6339920;28;20262;-77
2023/05/03 09:43:54;;;;;;;4.90;3.30;;;;;;;;;;6335408;28;20061;-77
2023/05/03 09:47:03;;;;;;;3.75;3.03;;;;;;;;;;6337306;28;20244;-77
2023/05/03 09:50:07;;;;;;;3.78;3.05;;;;;;;;;;6341239;28;20196;-77
2023/05/03 09:53:11;;;;;;;3.00;2.50;;;;;;;;;;6340821;28;20054;-77
2023/05/03 09:56:14;;;;;;;3.85;3.30;;;;;;;;;;6339153;28;20103;-77
2023/05/03 09:59:15;;;;;;;4.10;3.70;;;;;;;;;;6340074;28;20090;-77
2023/05/03 10:02:17;;;;;;;4.35;2.78;;;;;;;;;;6340525;28;20044;-77
2023/05/03 10:05:21;;;;;;;3.35;2.22;;;;;;;;;;6338849;28;20384;-77
2023/05/03 10:08:28;;;;;;;2.60;2.10;;;;;;;;;;6337708;28;20056;-77
2023/05/03 10:11:30;;;;;;;4.68;2.67;;;;;;;;;;6337515;28;20055;-77
2023/05/03 10:14:31;;;;;;;3.28;2.50;;;;;;;;;;6336187;28;20096;-77
2023/05/03 10:17:38;;;;;;;4.25;2.70;;;;;;;;;;6338352;28;20060;-77
2023/05/03 10:20:44;;;;;;;4.18;2.67;;;;;;;;;;6337701;28;20266;-77
2023/05/03 10:24:10;;;;;;;3.47;2.90;;;;;;;;;;6337267;28;20052;-77
2023/05/03 10:27:12;;;;;;;3.40;3.10;;;;;;;;;;6338998;28;20324;-78
2023/05/03 10:30:28;;;;;;;3.58;3.10;;;;;;;;;;6338053;28;20047;-77
2023/05/03 10:33:31;;;;;;;4.25;2.88;;;;;;;;;;6336241;28;20288;-78
2023/05/03 10:36:36;;;;;;;4.07;2.90;;;;;;;;;;6337047;28;20048;-77
2023/05/03 10:39:37;;;;;;;3.67;3.30;;;;;;;;;;6335835;28;20100;-78
2023/05/03 10:42:40;;;;;;;6.00;2.97;;;;;;;;;;6339073;28;20070;-77
2023/05/03 10:45:43;;;;;;;3.28;2.58;;;;;;;;;;6338351;28;20339;-77
2023/05/03 10:49:18;;;;;;;4.28;2.67;;;;;;;;;;6337985;28;20458;-77
2023/05/03 10:52:49;;;;;;;4.00;2.42;;;;;;;;;;6337516;28;20335;-76
2023/05/03 10:56:02;;;;;;;4.28;2.42;;;;;;;;;;6338319;28;20236;-78
2023/05/03 10:59:03;;;;;;;2.80;2.17;;;;;;;;;;6341573;28;20070;-77
2023/05/03 11:02:05;;;;;;;2.60;2.33;;;;;;;;;;6341911;28;20060;-77
2023/05/03 11:05:08;;;;;;;2.35;2.03;;;;;;;;;;6343698;28;20064;-78
2023/05/03 11:08:13;;;;;;;2.42;2.10;;;;;;;;;;6343147;28;20044;-78
2023/05/03 11:11:15;;;;;;;3.20;2.33;;;;;;;;;;6340618;28;20271;-78
2023/05/03 11:14:17;;;;;;;2.97;2.38;;;;;;;;;;6343103;28;20072;-77
2023/05/03 11:17:19;;;;;;;3.45;2.20;;;;;;;;;;6344461;28;20332;-78
2023/05/03 11:20:21;;;;;;;5.60;2.60;;;;;;;;;;6341364;28;20047;-78
2023/05/03 11:23:26;;;;;;;4.03;2.40;;;;;;;;;;6341398;28;20089;-78
2023/05/03 11:26:28;;;;;;;4.07;2.60;;;;;;;;;;6340218;28;20056;-79
2023/05/03 11:29:31;;;;;;;4.13;2.10;;;;;;;;;;6342037;28;20124;-78
2023/05/03 11:32:33;;;;;;;3.10;2.75;;;;;;;;;;6340859;28;20335;-78
2023/05/03 11:35:35;;;;;;;3.85;2.75;;;;;;;;;;6341646;28;20278;-78
2023/05/03 11:38:39;;;;;;;3.13;2.42;;;;;;;;;;6342796;28;20055;-78
2023/05/03 11:41:41;;;;;;;2.78;2.55;;;;;;;;;;6342050;28;20056;-78
2023/05/03 11:44:43;;;;;;;3.63;2.13;;;;;;;;;;6340564;28;20057;-78
2023/05/03 11:47:45;;;;;;;3.58;2.65;;;;;;;;;;6341197;28;20320;-78
2023/05/03 11:50:49;;;;;;;3.25;2.35;;;;;;;;;;6340475;28;20052;-78
2023/05/03 11:53:55;;;;;;;4.82;2.10;;;;;;;;;;6339932;28;20051;-76
2023/05/03 11:56:58;;;;;;;2.67;2.47;;;;;;;;;;6341568;28;20113;-78
2023/05/03 12:00:12;;;;;;;2.78;2.08;;;;;;;;;;6341171;28;20052;-78
2023/05/03 12:03:17;;;;;;;4.28;2.80;;;;;;;;;;6341747;28;20051;-78
2023/05/03 12:06:22;;;;;;;4.13;3.17;;;;;;;;;;6339510;28;20048;-78
2023/05/03 12:09:26;;;;;;;3.08;2.40;;;;;;;;;;6328160;28;20044;-78
2023/05/03 12:12:27;;;;;;;2.58;2.35;;;;;;;;;;6339036;28;20052;-79
2023/05/03 12:15:30;;;;;;;3.30;2.92;;;;;;;;;;6341216;28;20055;-79
2023/05/03 12:18:46;;;;;;;2.50;2.30;;;;;;;;;;6338137;28;20052;-77
2023/05/03 12:21:48;;;;;;;3.35;3.00;;;;;;;;;;6343558;28;20119;-74
2023/05/03 12:24:52;;;;;;;9.85;3.30;;;;;;;;;;6342442;28;20063;-78
2023/05/03 12:27:54;;;;;;;2.80;2.50;;;;;;;;;;6341604;28;20270;-79
2023/05/03 12:30:56;;;;;;;2.38;2.17;;;;;;;;;;6341051;28;20056;-78
2023/05/03 12:33:57;;;;;;;2.45;2.25;;;;;;;;;;6340820;28;20055;-79
2023/05/03 12:37:01;;;;;;;3.45;2.85;;;;;;;;;;6340829;28;20052;-79
2023/05/03 12:40:06;;;;;;;3.72;2.60;;;;;;;;;;6337650;28;20114;-79
2023/05/03 12:43:09;;;;;;;2.97;2.25;;;;;;;;;;6340388;28;20055;-80
2023/05/03 12:46:11;;;;;;;37.58;28.02;;;;;;;;;;6340138;28;20115;-84
2023/05/03 12:49:13;;;;;;;4.95;4.25;;;;;;;;;;6341203;28;20627;-83
2023/05/03 12:52:15;;;;;;;89.95;58.33;;;;;;;;;;6341930;28;20094;-81
2023/05/03 12:55:18;;;;;;;16.52;9.50;;;;;;;;;;6340464;28;20044;-83
2023/05/03 12:58:20;;;;;;;11.98;9.65;;;;;;;;;;6340362;28;20099;-82
2023/05/03 13:01:22;;;;;;;25.83;19.77;;;;;;;;;;6342009;28;20335;-82
2023/05/03 13:04:24;;;;;;;4.47;4.00;;;;;;;;;;6340723;28;20044;-79
2023/05/03 13:07:27;;;;;;;3.07;2.77;;;;;;;;;;6343194;28;20490;-79
2023/05/03 13:10:30;;;;;;;2.55;2.35;;;;;;;;;;6342006;28;20055;-78
2023/05/03 13:13:32;;;;;;;3.15;2.85;;;;;;;;;;6340059;28;20055;-79
2023/05/03 13:16:37;;;;;;;2.58;1.90;;;;;;;;;;6339203;28;20052;-78
2023/05/03 13:19:38;;;;;;;3.25;2.50;;;;;;;;;;6340835;28;20048;-78
2023/05/03 13:22:40;;;;;;;2.85;2.35;;;;;;;;;;6339762;28;20312;-78
2023/05/03 13:25:43;;;;;;;4.90;3.35;;;;;;;;;;6340031;28;20109;-77
2023/05/03 13:28:45;;;;;;;3.42;3.00;;;;;;;;;;6342961;28;20047;-77
2023/05/03 13:31:47;;;;;;;3.67;2.45;;;;;;;;;;6335369;27;20328;-78
2023/05/03 13:34:49;;;;;;;3.55;2.53;;;;;;;;;;6340668;28;20053;-77
2023/05/03 13:37:52;;;;;;;4.32;2.47;;;;;;;;;;6339521;28;20331;-78
2023/05/03 13:41:06;;;;;;;3.67;2.22;;;;;;;;;;6339439;28;20040;-77
2023/05/03 13:44:09;;;;;;;2.70;2.35;;;;;;;;;;6339376;28;20056;-78
2023/05/03 13:47:11;;;;;;;5.22;2.10;;;;;;;;;;6340407;28;20136;-77
2023/05/03 13:50:12;;;;;;;2.65;2.10;;;;;;;;;;6336870;28;20052;-76
2023/05/03 13:53:15;;;;;;;3.30;1.95;;;;;;;;;;6340255;28;20063;-77
2023/05/03 13:56:18;;;;;;;3.72;2.70;;;;;;;;;;6339794;28;20363;-78
2023/05/03 13:59:20;;;;;;;2.17;1.98;;;;;;;;;;6339193;28;20067;-78
2023/05/03 14:02:22;;;;;;;2.85;2.08;;;;;;;;;;6340513;28;20062;-77
2023/05/03 14:05:23;;;;;;;4.82;1.90;;;;;;;;;;6336780;27;20044;-75
2023/05/03 14:08:25;;;;;;;2.35;2.15;;;;;;;;;;6340673;28;20089;-78
2023/05/03 14:11:29;;;;;;;2.23;1.80;;;;;;;;;;6338604;28;20060;-78
2023/05/03 14:14:31;;;;;;;2.38;2.05;;;;;;;;;;6336889;28;20069;-77
2023/05/03 14:17:43;;;;;;;;;;;;;;;;;;;;;
2023/05/03 14:20:46;;;;;;;2.30;2.10;;;;;;;;;;6338685;28;20800;-77
2023/05/03 14:23:48;;;;;;;2.70;2.50;;;;;;;;;;6337807;28;20051;-76
2023/05/03 14:26:52;;;;;;;2.40;2.13;;;;;;;;;;6337521;28;20115;-76
2023/05/03 14:29:54;;;;;;;4.35;2.38;;;;;;;;;;6341128;28;20106;-77
2023/05/03 14:32:56;;;;;;;2.90;2.60;;;;;;;;;;6335241;28;20430;-77
2023/05/03 14:35:58;;;;;;;2.25;2.00;;;;;;;;;;6334187;28;20713;-77
2023/05/03 14:39:02;;;;;;;4.37;2.33;;;;;;;;;;6339882;28;20231;-77
2023/05/03 14:42:10;;;;;;;4.95;2.70;;;;;;;;;;6338135;28;21253;-78
2023/05/03 14:45:13;;;;;;;3.88;2.80;;;;;;;;;;6337803;28;20056;-78
2023/05/03 14:48:19;;;;;;;2.85;2.20;;;;;;;;;;6338637;28;20169;-78
2023/05/03 14:51:21;;;;;;;4.15;2.40;;;;;;;;;;6333629;28;20052;-78
2023/05/03 14:54:26;;;;;;;2.63;2.28;;;;;;;;;;6339882;28;20052;-78
2023/05/03 14:57:37;;;;;;;3.40;2.13;;;;;;;;;;6337896;28;20063;-80
2023/05/03 15:00:44;;;;;;;138.73;105.75;;;;;;;;;;6341258;28;20055;-81
2023/05/03 15:03:49;;;;;;;20.17;18.02;;;;;;;;;;6340395;28;20055;-80
2023/05/03 15:06:52;;;;;;;4.90;3.88;;;;;;;;;;6340301;28;20089;-80
2023/05/03 15:10:04;;;;;;;8.63;6.28;;;;;;;;;;6338020;28;20113;-80
2023/05/03 15:13:08;;;;;;;4.63;4.07;;;;;;;;;;6338512;28;20109;-80
2023/05/03 15:16:10;;;;;;;30.98;23.23;;;;;;;;;;6336509;28;20050;-79
2023/05/03 15:19:12;;;;;;;2.95;2.22;;;;;;;;;;6335478;28;20055;-77
2023/05/03 15:22:20;;;;;;;2.57;1.90;;;;;;;;;;6337101;28;20109;-77
2023/05/03 15:25:28;;;;;;;3.78;1.73;;;;;;;;;;6338092;28;20477;-77
2023/05/03 15:28:31;;;;;;;2.17;1.52;;;;;;;;;;6338187;28;20175;-77
2023/05/03 15:31:34;;;;;;;2.97;2.30;;;;;;;;;;6336469;28;20063;-78
2023/05/03 15:34:36;;;;;;;4.15;2.10;;;;;;;;;;6337550;28;20660;-77
2023/05/03 15:37:40;;;;;;;2.33;1.97;;;;;;;;;;6336937;28;20093;-78
2023/05/03 15:40:42;;;;;;;1.85;1.65;;;;;;;;;;6335261;28;20485;-81
2023/05/03 15:43:46;;;;;;;22.88;16.90;;;;;;;;;;6337819;28;20123;-80
2023/05/03 15:46:48;;;;;;;8.52;6.90;;;;;;;;;;6340377;28;20069;-78
2023/05/03 15:49:50;;;;;;;3.25;2.05;;;;;;;;;;6337477;28;20047;-77
2023/05/03 15:52:56;;;;;;;1.67;1.40;;;;;;;;;;6341526;27;20213;-78
2023/05/03 15:55:58;;;;;;;2.00;1.67;;;;;;;;;;6339353;28;20066;-77
2023/05/03 15:59:02;;;;;;;3.25;2.22;;;;;;;;;;6338466;28;20052;-78
2023/05/03 16:02:04;;;;;;;3.38;2.10;;;;;;;;;;6341464;28;20284;-76
2023/05/03 16:05:06;;;;;;;2.45;2.20;;;;;;;;;;6340723;28;20047;-78
2023/05/03 16:08:08;;;;;;;2.88;2.08;;;;;;;;;;6341150;28;20048;-78
2023/05/03 16:11:11;;;;;;;3.08;2.50;;;;;;;;;;6332853;28;20349;-79
2023/05/03 16:14:14;;;;;;;4.93;2.95;;;;;;;;;;6340998;28;20116;-77
2023/05/03 16:17:25;;;;;;;3.05;2.38;;;;;;;;;;6341638;28;20052;-78
2023/05/03 16:20:57;;;;;;;3.78;2.80;;;;;;;;;;6342267;28;20066;-77
2023/05/03 16:23:59;;;;;;;2.90;2.58;;;;;;;;;;6339079;28;20056;-77
2023/05/03 16:27:02;;;;;;;3.30;2.47;;;;;;;;;;6340684;28;20113;-78
2023/05/03 16:30:06;;;;;;;3.00;2.70;;;;;;;;;;6339985;28;20058;-77
2023/05/03 16:33:09;;;;;;;5.00;2.10;;;;;;;;;;6341434;28;20247;-77
2023/05/03 16:36:10;;;;;;;4.35;1.90;;;;;;;;;;6341709;28;20119;-77
2023/05/03 16:39:13;;;;;;;3.25;2.03;;;;;;;;;;6339449;28;20078;-77
2023/05/03 16:42:15;;;;;;;3.13;2.78;;;;;;;;;;6337921;28;20121;-77
2023/05/03 16:45:21;;;;;;;2.70;2.10;;;;;;;;;;6340632;28;20044;-77
2023/05/03 16:48:23;;;;;;;2.45;2.03;;;;;;;;;;6339415;28;20064;-77
2023/05/03 16:51:28;;;;;;;2.10;1.90;;;;;;;;;;6337819;28;20420;-77
2023/05/03 16:54:31;;;;;;;4.78;2.53;;;;;;;;;;6338008;27;20059;-77
2023/05/03 16:57:33;;;;;;;2.63;2.25;;;;;;;;;;6337936;28;20335;-78
2023/05/03 17:00:39;;;;;;;4.63;2.50;;;;;;;;;;6339322;28;20135;-77
2023/05/03 17:03:45;;;;;;;2.75;2.20;;;;;;;;;;6334845;28;20055;-77
2023/05/03 17:10:07;;;;;;;3.28;2.60;;;;;;;;;;6338292;28;20236;-75
2023/05/03 17:13:09;;;;;;;2.65;2.00;;;;;;;;;;6336908;27;20047;-74
2023/05/03 17:16:14;;;;;;;2.22;1.77;;;;;;;;;;6338332;28;20085;-75
2023/05/03 17:19:16;;;;;;;2.47;2.00;;;;;;;;;;6339758;28;20060;-74
2023/05/03 17:22:18;;;;;;;2.43;1.87;;;;;;;;;;6339957;27;20051;-74
2023/05/03 17:25:21;;;;;;;3.70;2.08;;;;;;;;;;6339481;27;20063;-74
2023/05/03 17:28:23;;;;;;;2.80;2.10;;;;;;;;;;6336688;27;20316;-74
2023/05/03 17:31:28;;;;;;;2.08;1.73;;;;;;;;;;6337222;27;20056;-75
2023/05/03 17:34:31;;;;;;;3.17;1.95;;;;;;;;;;6338576;27;20047;-75
2023/05/03 17:37:33;;;;;;;2.22;1.80;;;;;;;;;;6326509;27;20189;-75
2023/05/03 17:40:39;;;;;;;2.65;2.25;;;;;;;;;;6336655;28;20101;-74
2023/05/03 17:43:42;;;;;;;2.85;1.85;;;;;;;;;;6339191;27;20060;-77
2023/05/03 17:46:45;;;;;;;3.65;2.17;;;;;;;;;;6336116;27;20103;-78
2023/05/03 17:49:47;;;;;;;3.83;1.73;;;;;;;;;;6337577;28;20051;-77
2023/05/03 17:52:49;;;;;;;3.75;1.90;;;;;;;;;;6337693;28;20039;-78
2023/05/03 17:55:54;;;;;;;7.95;2.03;;;;;;;;;;6328570;27;20047;-77
2023/05/03 17:58:56;;;;;;;2.30;1.98;;;;;;;;;;6339199;27;20043;-78
2023/05/03 18:01:59;;;;;;;2.85;1.80;;;;;;;;;;6337282;28;20585;-75
2023/05/03 18:05:07;;;;;;;2.72;1.90;;;;;;;;;;6339984;27;20059;-77
2023/05/03 18:08:12;;;;;;;3.20;2.00;;;;;;;;;;6337905;27;20359;-77
2023/05/03 18:11:30;;;;;;;2.05;1.60;;;;;;;;;;6338494;28;20067;-77
2023/05/03 18:14:47;;;;;;;3.05;1.70;;;;;;;;;;6337061;28;20055;-77
2023/05/03 18:17:51;;;;;;;4.75;1.80;;;;;;;;;;6337799;27;20085;-77
2023/05/03 18:20:59;;;;;;;2.78;1.70;;;;;;;;;;6340724;28;20046;-80
2023/05/03 18:24:03;;;;;;;4.15;1.45;;;;;;;;;;6339389;27;20052;-75
2023/05/03 18:27:04;;;;;;;3.30;1.92;;;;;;;;;;6340728;28;20343;-78
2023/05/03 18:30:08;;;;;;;2.30;1.60;;;;;;;;;;6343152;28;20103;-76